sensor_id;sensor_type;location;lat;lon;timestamp;pressure;altitude;pressure_sealevel;temperature;humidity
38939;BME280;24211;49.980;19.776;2023-02-28T00:01:31;100598.66;;;1.15;100.00
38939;BME280;24211;49.980;19.776;2023-02-28T00:03:58;100595.44;;;1.11;100.00
38939;BME280;24211;49.980;19.776;2023-02-28T00:06:28;100591.97;;;1.11;100.00
38939;BME280;24211;49.980;19.776;2023-02-28T00:08:55;100600.69;;;1.11;100.00
38939;BME280;24211;49.980;19.776;2023-02-28T00:11:23;100599.50;;;1.15;100.00
38939;BME280;24211;49.980;19.776;2023-02-28T00:13:50;100604.47;;;1.18;100.00
38939;BME280;24211;49.980;19.776;2023-02-28T00:16:21;100610.44;;;1.20;100.00
38939;BME280;24211;49.980;19.776;2023-02-28T00:18:49;100616.41;;;1.22;100.00
38939;BME280;24211;49.980;19.776;2023-02-28T00:21:18;100619.97;;;1.12;100.00
38939;BME280;24211;49.980;19.776;2023-02-28T00:23:46;100620.13;;;1.10;100.00
38939;BME280;24211;49.980;19.776;2023-02-28T00:26:14;100613.88;;;1.11;100.00
38939;BME280;24211;49.980;19.776;2023-02-28T00:28:45;100620.38;;;1.07;100.00
38939;BME280;24211;49.980;19.776;2023-02-28T00:31:12;100622.81;;;0.99;100.00
38939;BME280;24211;49.980;19.776;2023-02-28T00:33:39;100622.41;;;1.04;100.00
38939;BME280;24211;49.980;19.776;2023-02-28T00:36:10;100622.38;;;0.94;100.00
38939;BME280;24211;49.980;19.776;2023-02-28T00:38:39;100627.09;;;0.91;100.00
38939;BME280;24211;49.980;19.776;2023-02-28T00:41:07;100624.31;;;0.92;100.00
38939;BME280;24211;49.980;19.776;2023-02-28T00:43:37;100625.47;;;0.99;100.00
38939;BME280;24211;49.980;19.776;2023-02-28T00:46:04;100618.25;;;1.01;100.00
38939;BME280;24211;49.980;19.776;2023-02-28T00:48:32;100623.13;;;1.06;100.00
38939;BME280;24211;49.980;19.776;2023-02-28T00:51:00;100621.06;;;1.09;100.00
38939;BME280;24211;49.980;19.776;2023-02-28T00:53:28;100625.63;;;1.07;100.00
38939;BME280;24211;49.980;19.776;2023-02-28T00:55:57;100616.06;;;1.06;100.00
38939;BME280;24211;49.980;19.776;2023-02-28T00:58:26;100619.38;;;1.08;100.00
38939;BME280;24211;49.980;19.776;2023-02-28T01:00:53;100616.66;;;1.10;100.00
38939;BME280;24211;49.980;19.776;2023-02-28T01:03:21;100617.19;;;1.13;100.00
38939;BME280;24211;49.980;19.776;2023-02-28T01:05:49;100610.28;;;1.12;100.00
38939;BME280;24211;49.980;19.776;2023-02-28T01:08:17;100608.84;;;1.08;100.00
38939;BME280;24211;49.980;19.776;2023-02-28T01:10:44;100614.97;;;1.09;100.00
38939;BME280;24211;49.980;19.776;2023-02-28T01:13:12;100621.75;;;1.11;100.00
38939;BME280;24211;49.980;19.776;2023-02-28T01:15:45;100613.16;;;1.09;100.00
38939;BME280;24211;49.980;19.776;2023-02-28T01:18:15;100608.59;;;1.11;100.00
38939;BME280;24211;49.980;19.776;2023-02-28T01:20:42;100612.91;;;1.12;100.00
38939;BME280;24211;49.980;19.776;2023-02-28T01:23:10;100619.72;;;1.15;100.00
38939;BME280;24211;49.980;19.776;2023-02-28T01:25:37;100619.56;;;1.16;100.00
38939;BME280;24211;49.980;19.776;2023-02-28T01:28:05;100611.66;;;1.16;100.00
38939;BME280;24211;49.980;19.776;2023-02-28T01:30:34;100608.34;;;1.14;100.00
38939;BME280;24211;49.980;19.776;2023-02-28T01:33:01;100607.50;;;1.14;100.00
38939;BME280;24211;49.980;19.776;2023-02-28T01:35:33;100614.44;;;1.15;100.00
38939;BME280;24211;49.980;19.776;2023-02-28T01:38:03;100608.34;;;1.14;100.00
38939;BME280;24211;49.980;19.776;2023-02-28T01:40:47;100604.75;;;1.15;100.00
38939;BME280;24211;49.980;19.776;2023-02-28T01:43:24;100599.59;;;1.14;100.00
38939;BME280;24211;49.980;19.776;2023-02-28T01:45:56;100594.34;;;1.14;100.00
38939;BME280;24211;49.980;19.776;2023-02-28T01:48:35;100592.81;;;1.11;100.00
38939;BME280;24211;49.980;19.776;2023-02-28T01:51:13;100591.97;;;1.11;100.00
38939;BME280;24211;49.980;19.776;2023-02-28T01:53:51;100597.13;;;1.12;100.00
38939;BME280;24211;49.980;19.776;2023-02-28T01:56:26;100596.28;;;1.12;100.00
38939;BME280;24211;49.980;19.776;2023-02-28T01:58:55;100591.16;;;1.10;100.00
38939;BME280;24211;49.980;19.776;2023-02-28T02:01:26;100596.41;;;1.10;100.00
38939;BME280;24211;49.980;19.776;2023-02-28T02:03:59;100589.63;;;1.08;100.00
38939;BME280;24211;49.980;19.776;2023-02-28T02:06:37;100595.00;;;1.06;100.00
38939;BME280;24211;49.980;19.776;2023-02-28T02:09:11;100603.59;;;1.08;100.00
38939;BME280;24211;49.980;19.776;2023-02-28T02:11:43;100599.16;;;1.09;100.00
38939;BME280;24211;49.980;19.776;2023-02-28T02:17:34;100592.53;;;1.14;100.00
38939;BME280;24211;49.980;19.776;2023-02-28T02:20:46;100589.75;;;1.16;100.00
38939;BME280;24211;49.980;19.776;2023-02-28T02:30:27;100592.53;;;1.14;100.00
38939;BME280;24211;49.980;19.776;2023-02-28T02:36:23;100587.53;;;1.11;100.00
38939;BME280;24211;49.980;19.776;2023-02-28T02:41:37;100579.53;;;1.13;100.00
38939;BME280;24211;49.980;19.776;2023-02-28T02:44:31;100577.00;;;1.11;100.00
38939;BME280;24211;49.980;19.776;2023-02-28T02:47:12;100582.28;;;1.11;100.00
38939;BME280;24211;49.980;19.776;2023-02-28T02:49:48;100578.00;;;1.10;100.00
38939;BME280;24211;49.980;19.776;2023-02-28T02:52:25;100581.44;;;1.11;100.00
38939;BME280;24211;49.980;19.776;2023-02-28T02:55:00;100582.53;;;1.08;100.00
38939;BME280;24211;49.980;19.776;2023-02-28T02:57:35;100579.22;;;1.06;100.00
38939;BME280;24211;49.980;19.776;2023-02-28T03:00:05;100579.22;;;1.06;100.00
38939;BME280;24211;49.980;19.776;2023-02-28T03:02:37;100573.94;;;1.06;100.00
38939;BME280;24211;49.980;19.776;2023-02-28T03:05:19;100577.28;;;1.08;100.00
38939;BME280;24211;49.980;19.776;2023-02-28T03:07:48;100578.09;;;1.09;100.00
38939;BME280;24211;49.980;19.776;2023-02-28T03:10:41;100566.19;;;1.05;100.00
38939;BME280;24211;49.980;19.776;2023-02-28T03:16:17;100573.66;;;1.00;100.00
38939;BME280;24211;49.980;19.776;2023-02-28T03:19:23;100582.38;;;1.00;100.00
38939;BME280;24211;49.980;19.776;2023-02-28T03:22:24;100585.28;;;0.97;100.00
38939;BME280;24211;49.980;19.776;2023-02-28T03:25:23;100586.97;;;0.98;100.00
38939;BME280;24211;49.980;19.776;2023-02-28T03:30:51;100594.97;;;0.97;100.00
38939;BME280;24211;49.980;19.776;2023-02-28T03:33:31;100598.59;;;0.96;100.00
38939;BME280;24211;49.980;19.776;2023-02-28T03:36:12;100599.38;;;0.96;100.00
38939;BME280;24211;49.980;19.776;2023-02-28T03:38:51;100601.31;;;0.94;100.00
38939;BME280;24211;49.980;19.776;2023-02-28T03:41:27;100597.03;;;0.93;100.00
38939;BME280;24211;49.980;19.776;2023-02-28T03:44:11;100603.41;;;0.91;100.00
38939;BME280;24211;49.980;19.776;2023-02-28T03:47:03;100597.97;;;0.83;100.00
38939;BME280;24211;49.980;19.776;2023-02-28T03:49:50;100606.25;;;0.78;100.00
38939;BME280;24211;49.980;19.776;2023-02-28T03:52:27;100606.50;;;0.75;100.00
38939;BME280;24211;49.980;19.776;2023-02-28T03:55:09;100601.50;;;0.72;100.00
38939;BME280;24211;49.980;19.776;2023-02-28T03:57:47;100607.31;;;0.66;100.00
38939;BME280;24211;49.980;19.776;2023-02-28T04:00:31;100620.13;;;0.59;100.00
38939;BME280;24211;49.980;19.776;2023-02-28T04:03:01;100630.06;;;0.56;100.00
38939;BME280;24211;49.980;19.776;2023-02-28T04:05:30;100616.47;;;0.51;100.00
38939;BME280;24211;49.980;19.776;2023-02-28T04:08:08;100618.28;;;0.50;100.00
38939;BME280;24211;49.980;19.776;2023-02-28T04:10:36;100615.78;;;0.49;100.00
38939;BME280;24211;49.980;19.776;2023-02-28T04:13:03;100627.94;;;0.50;100.00
38939;BME280;24211;49.980;19.776;2023-02-28T04:15:30;100621.84;;;0.49;100.00
38939;BME280;24211;49.980;19.776;2023-02-28T04:17:58;100629.88;;;0.48;100.00
38939;BME280;24211;49.980;19.776;2023-02-28T04:20:26;100624.03;;;0.44;100.00
38939;BME280;24211;49.980;19.776;2023-02-28T04:22:52;100623.22;;;0.44;100.00
38939;BME280;24211;49.980;19.776;2023-02-28T04:25:20;100623.22;;;0.44;100.00
38939;BME280;24211;49.980;19.776;2023-02-28T04:27:48;100626.56;;;0.46;100.00
38939;BME280;24211;49.980;19.776;2023-02-28T04:30:16;100625.56;;;0.47;100.00
38939;BME280;24211;49.980;19.776;2023-02-28T04:32:43;100630.97;;;0.45;100.00
38939;BME280;24211;49.980;19.776;2023-02-28T04:35:10;100636.22;;;0.45;100.00
38939;BME280;24211;49.980;19.776;2023-02-28T04:37:38;100631.81;;;0.46;100.00
38939;BME280;24211;49.980;19.776;2023-02-28T04:40:06;100637.31;;;0.43;100.00
38939;BME280;24211;49.980;19.776;2023-02-28T04:42:33;100632.91;;;0.43;100.00
38939;BME280;24211;49.980;19.776;2023-02-28T04:45:03;100638.41;;;0.40;100.00
38939;BME280;24211;49.980;19.776;2023-02-28T04:47:31;100641.19;;;0.39;100.00
38939;BME280;24211;49.980;19.776;2023-02-28T04:49:58;100639.50;;;0.38;100.00
38939;BME280;24211;49.980;19.776;2023-02-28T04:52:27;100636.16;;;0.36;100.00
38939;BME280;24211;49.980;19.776;2023-02-28T04:54:54;100638.09;;;0.34;100.00
38939;BME280;24211;49.980;19.776;2023-02-28T04:57:21;100644.28;;;0.33;100.00
38939;BME280;24211;49.980;19.776;2023-02-28T04:59:49;100636.66;;;0.30;100.00
38939;BME280;24211;49.980;19.776;2023-02-28T05:02:16;100643.97;;;0.26;100.00
38939;BME280;24211;49.980;19.776;2023-02-28T05:04:43;100643.38;;;0.23;100.00
38939;BME280;24211;49.980;19.776;2023-02-28T05:07:10;100646.00;;;0.23;100.00
38939;BME280;24211;49.980;19.776;2023-02-28T05:09:38;100650.44;;;0.22;100.00
38939;BME280;24211;49.980;19.776;2023-02-28T05:12:05;100649.16;;;0.17;100.00
38939;BME280;24211;49.980;19.776;2023-02-28T05:14:32;100645.09;;;0.13;100.00
38939;BME280;24211;49.980;19.776;2023-02-28T05:16:59;100648.72;;;0.12;100.00
38939;BME280;24211;49.980;19.776;2023-02-28T05:19:26;100647.28;;;0.08;100.00
38939;BME280;24211;49.980;19.776;2023-02-28T05:21:54;100655.44;;;0.05;100.00
38939;BME280;24211;49.980;19.776;2023-02-28T05:24:22;100641.56;;;0.03;100.00
38939;BME280;24211;49.980;19.776;2023-02-28T05:26:53;100647.78;;;0.02;100.00
38939;BME280;24211;49.980;19.776;2023-02-28T05:29:21;100661.16;;;-0.02;100.00
38939;BME280;24211;49.980;19.776;2023-02-28T05:31:48;100665.72;;;-0.04;100.00
38939;BME280;24211;49.980;19.776;2023-02-28T05:34:16;100666.81;;;-0.06;100.00
38939;BME280;24211;49.980;19.776;2023-02-28T05:36:44;100670.13;;;-0.04;100.00
38939;BME280;24211;49.980;19.776;2023-02-28T05:39:11;100678.72;;;-0.02;100.00
38939;BME280;24211;49.980;19.776;2023-02-28T05:41:42;100676.47;;;-0.07;100.00
38939;BME280;24211;49.980;19.776;2023-02-28T05:44:10;100678.63;;;-0.12;100.00
38939;BME280;24211;49.980;19.776;2023-02-28T05:46:37;100678.31;;;-0.18;100.00
38939;BME280;24211;49.980;19.776;2023-02-28T05:49:05;100687.13;;;-0.19;100.00
38939;BME280;24211;49.980;19.776;2023-02-28T05:51:32;100685.34;;;-0.19;100.00
38939;BME280;24211;49.980;19.776;2023-02-28T05:54:01;100694.06;;;-0.18;100.00
38939;BME280;24211;49.980;19.776;2023-02-28T05:56:29;100688.22;;;-0.22;100.00
38939;BME280;24211;49.980;19.776;2023-02-28T05:58:56;100685.00;;;-0.25;100.00
38939;BME280;24211;49.980;19.776;2023-02-28T06:04:00;100693.72;;;-0.25;100.00
38939;BME280;24211;49.980;19.776;2023-02-28T06:06:28;100698.97;;;-0.25;100.00
38939;BME280;24211;49.980;19.776;2023-02-28T06:09:04;100691.81;;;-0.23;100.00
38939;BME280;24211;49.980;19.776;2023-02-28T06:11:32;100690.84;;;-0.22;100.00
38939;BME280;24211;49.980;19.776;2023-02-28T06:14:00;100702.31;;;-0.23;100.00
38939;BME280;24211;49.980;19.776;2023-02-28T06:16:30;100704.94;;;-0.23;100.00
38939;BME280;24211;49.980;19.776;2023-02-28T06:19:01;100708.50;;;-0.24;100.00
38939;BME280;24211;49.980;19.776;2023-02-28T06:21:29;100713.06;;;-0.26;100.00
38939;BME280;24211;49.980;19.776;2023-02-28T06:23:58;100714.47;;;-0.22;100.00
38939;BME280;24211;49.980;19.776;2023-02-28T06:26:26;100719.72;;;-0.22;100.00
38939;BME280;24211;49.980;19.776;2023-02-28T06:28:54;100717.00;;;-0.20;100.00
38939;BME280;24211;49.980;19.776;2023-02-28T06:31:22;100718.66;;;-0.19;100.00
38939;BME280;24211;49.980;19.776;2023-02-28T06:33:51;100728.59;;;-0.23;100.00
38939;BME280;24211;49.980;19.776;2023-02-28T06:36:18;100724.28;;;-0.24;100.00
38939;BME280;24211;49.980;19.776;2023-02-28T06:38:46;100727.13;;;-0.27;100.00
38939;BME280;24211;49.980;19.776;2023-02-28T06:41:18;100726.34;;;-0.27;100.00
38939;BME280;24211;49.980;19.776;2023-02-28T06:43:45;100723.56;;;-0.26;100.00
38939;BME280;24211;49.980;19.776;2023-02-28T06:46:13;100727.03;;;-0.25;100.00
38939;BME280;24211;49.980;19.776;2023-02-28T06:48:44;100723.34;;;-0.23;100.00
38939;BME280;24211;49.980;19.776;2023-02-28T06:51:16;100715.19;;;-0.20;100.00
38939;BME280;24211;49.980;19.776;2023-02-28T06:53:43;100726.91;;;-0.24;100.00
38939;BME280;24211;49.980;19.776;2023-02-28T06:56:14;100728.59;;;-0.23;100.00
38939;BME280;24211;49.980;19.776;2023-02-28T06:58:46;100735.75;;;-0.25;100.00
38939;BME280;24211;49.980;19.776;2023-02-28T07:01:13;100737.88;;;-0.19;100.00
38939;BME280;24211;49.980;19.776;2023-02-28T07:03:41;100741.94;;;-0.15;100.00
38939;BME280;24211;49.980;19.776;2023-02-28T07:06:08;100733.09;;;-0.14;100.00
38939;BME280;24211;49.980;19.776;2023-02-28T07:08:35;100737.97;;;-0.09;100.00
38939;BME280;24211;49.980;19.776;2023-02-28T07:11:03;100734.53;;;-0.10;100.00
38939;BME280;24211;49.980;19.776;2023-02-28T07:13:31;100741.94;;;-0.15;100.00
38939;BME280;24211;49.980;19.776;2023-02-28T07:16:02;100749.72;;;-0.13;100.00
38939;BME280;24211;49.980;19.776;2023-02-28T07:18:42;100749.09;;;-0.17;100.00
38939;BME280;24211;49.980;19.776;2023-02-28T07:21:10;100754.47;;;-0.07;100.00
38939;BME280;24211;49.980;19.776;2023-02-28T07:23:38;100749.31;;;0.03;100.00
38939;BME280;24211;49.980;19.776;2023-02-28T07:26:07;100755.91;;;-0.03;100.00
38939;BME280;24211;49.980;19.776;2023-02-28T07:28:34;100750.66;;;-0.03;100.00
38939;BME280;24211;49.980;19.776;2023-02-28T07:31:05;100755.28;;;0.05;100.00
38939;BME280;24211;49.980;19.776;2023-02-28T07:33:33;100761.72;;;0.00;100.00
38939;BME280;24211;49.980;19.776;2023-02-28T07:36:06;100756.34;;;0.13;100.00
38939;BME280;24211;49.980;19.776;2023-02-28T07:38:36;100752.16;;;0.22;100.00
38939;BME280;24211;49.980;19.776;2023-02-28T07:41:04;100752.53;;;0.17;100.00
38939;BME280;24211;49.980;19.776;2023-02-28T07:43:32;100758.59;;;0.18;100.00
38939;BME280;24211;49.980;19.776;2023-02-28T07:46:05;100761.38;;;0.05;100.00
38939;BME280;24211;49.980;19.776;2023-02-28T07:48:33;100762.09;;;0.07;100.00
38939;BME280;24211;49.980;19.776;2023-02-28T07:51:03;100764.59;;;0.09;100.00
38939;BME280;24211;49.980;19.776;2023-02-28T07:53:30;100754.00;;;-0.01;100.00
38939;BME280;24211;49.980;19.776;2023-02-28T07:55:59;100754.09;;;0.09;100.00
38939;BME280;24211;49.980;19.776;2023-02-28T07:58:30;100759.47;;;-0.04;100.00
38939;BME280;24211;49.980;19.776;2023-02-28T08:01:06;100756.25;;;0.04;100.00
38939;BME280;24211;49.980;19.776;2023-02-28T08:03:34;100761.69;;;0.23;100.00
38939;BME280;24211;49.980;19.776;2023-02-28T08:06:03;100758.03;;;0.14;100.00
38939;BME280;24211;49.980;19.776;2023-02-28T08:08:31;100754.56;;;0.14;100.00
38939;BME280;24211;49.980;19.776;2023-02-28T08:11:01;100757.78;;;0.17;100.00
38939;BME280;24211;49.980;19.776;2023-02-28T08:13:30;100752.00;;;0.23;100.00
38939;BME280;24211;49.980;19.776;2023-02-28T08:15:57;100750.69;;;0.29;100.00
38939;BME280;24211;49.980;19.776;2023-02-28T08:18:25;100752.09;;;0.33;100.00
38939;BME280;24211;49.980;19.776;2023-02-28T08:20:52;100753.03;;;0.43;100.00
38939;BME280;24211;49.980;19.776;2023-02-28T08:23:19;100751.78;;;0.58;100.00
38939;BME280;24211;49.980;19.776;2023-02-28T08:25:54;100765.63;;;0.60;100.00
38939;BME280;24211;49.980;19.776;2023-02-28T08:28:23;100754.66;;;0.55;100.00
38939;BME280;24211;49.980;19.776;2023-02-28T08:30:53;100752.34;;;0.61;100.00
38939;BME280;24211;49.980;19.776;2023-02-28T08:33:22;100751.44;;;0.83;100.00
38939;BME280;24211;49.980;19.776;2023-02-28T08:35:56;100750.41;;;0.95;100.00
38939;BME280;24211;49.980;19.776;2023-02-28T08:38:24;100747.38;;;1.00;100.00
38939;BME280;24211;49.980;19.776;2023-02-28T08:41:04;100751.66;;;1.01;100.00
38939;BME280;24211;49.980;19.776;2023-02-28T08:43:36;100744.94;;;1.08;100.00
38939;BME280;24211;49.980;19.776;2023-02-28T08:46:04;100744.28;;;1.15;100.00
38939;BME280;24211;49.980;19.776;2023-02-28T08:48:35;100745.59;;;1.30;100.00
38939;BME280;24211;49.980;19.776;2023-02-28T08:51:08;100742.91;;;1.42;100.00
38939;BME280;24211;49.980;19.776;2023-02-28T08:53:38;100747.91;;;1.45;100.00
38939;BME280;24211;49.980;19.776;2023-02-28T08:56:10;100746.13;;;1.94;100.00
38939;BME280;24211;49.980;19.776;2023-02-28T08:58:39;100739.16;;;1.74;100.00
38939;BME280;24211;49.980;19.776;2023-02-28T09:01:13;100730.03;;;3.32;100.00
38939;BME280;24211;49.980;19.776;2023-02-28T09:03:42;100734.97;;;4.26;100.00
38939;BME280;24211;49.980;19.776;2023-02-28T09:06:10;100727.50;;;3.94;100.00
38939;BME280;24211;49.980;19.776;2023-02-28T09:08:38;100732.78;;;3.94;100.00
38939;BME280;24211;49.980;19.776;2023-02-28T09:11:07;100730.66;;;4.60;100.00
38939;BME280;24211;49.980;19.776;2023-02-28T09:13:37;100727.97;;;4.52;100.00
38939;BME280;24211;49.980;19.776;2023-02-28T09:16:10;100720.88;;;5.21;89.18
38939;BME280;24211;49.980;19.776;2023-02-28T09:18:39;100723.28;;;6.00;98.82
38939;BME280;24211;49.980;19.776;2023-02-28T09:21:12;100733.03;;;5.06;100.00
38939;BME280;24211;49.980;19.776;2023-02-28T09:23:43;100725.41;;;3.70;100.00
38939;BME280;24211;49.980;19.776;2023-02-28T09:26:16;100731.59;;;3.52;100.00
38939;BME280;24211;49.980;19.776;2023-02-28T09:28:44;100732.50;;;3.33;100.00
38939;BME280;24211;49.980;19.776;2023-02-28T09:31:19;100729.53;;;2.99;100.00
38939;BME280;24211;49.980;19.776;2023-02-28T09:33:52;100732.78;;;3.30;100.00
38939;BME280;24211;49.980;19.776;2023-02-28T09:36:21;100732.78;;;3.30;100.00
38939;BME280;24211;49.980;19.776;2023-02-28T09:38:51;100727.81;;;3.17;100.00
38939;BME280;24211;49.980;19.776;2023-02-28T09:41:26;100735.75;;;3.54;100.00
38939;BME280;24211;49.980;19.776;2023-02-28T09:43:59;100732.66;;;3.68;100.00
38939;BME280;24211;49.980;19.776;2023-02-28T09:46:34;100733.06;;;3.91;100.00
38939;BME280;24211;49.980;19.776;2023-02-28T09:49:11;100729.13;;;4.05;100.00
38939;BME280;24211;49.980;19.776;2023-02-28T09:54:32;100735.25;;;4.05;100.00
38939;BME280;24211;49.980;19.776;2023-02-28T09:57:32;100729.53;;;4.27;100.00
38939;BME280;24211;49.980;19.776;2023-02-28T10:00:22;100723.03;;;4.39;100.00
38939;BME280;24211;49.980;19.776;2023-02-28T10:05:42;100729.38;;;4.29;100.00
38939;BME280;24211;49.980;19.776;2023-02-28T10:08:45;100727.16;;;4.77;100.00
38939;BME280;24211;49.980;19.776;2023-02-28T10:11:18;100731.88;;;4.13;100.00
38939;BME280;24211;49.980;19.776;2023-02-28T10:14:01;100730.31;;;3.92;100.00
38939;BME280;24211;49.980;19.776;2023-02-28T10:16:47;100732.22;;;4.18;100.00
38939;BME280;24211;49.980;19.776;2023-02-28T10:19:34;100731.88;;;4.13;100.00
38939;BME280;24211;49.980;19.776;2023-02-28T10:22:11;100720.50;;;4.03;100.00
38939;BME280;24211;49.980;19.776;2023-02-28T10:24:51;100711.06;;;4.53;100.00
38939;BME280;24211;49.980;19.776;2023-02-28T10:27:25;100713.69;;;4.88;100.00
38939;BME280;24211;49.980;19.776;2023-02-28T10:29:58;100705.44;;;4.91;100.00
38939;BME280;24211;49.980;19.776;2023-02-28T10:32:33;100710.38;;;4.16;98.40
38939;BME280;24211;49.980;19.776;2023-02-28T10:35:19;100700.56;;;4.61;100.00
38939;BME280;24211;49.980;19.776;2023-02-28T10:37:51;100706.28;;;4.04;100.00
38939;BME280;24211;49.980;19.776;2023-02-28T10:43:03;100694.78;;;5.35;100.00
38939;BME280;24211;49.980;19.776;2023-02-28T10:45:34;100692.91;;;5.53;100.00
38939;BME280;24211;49.980;19.776;2023-02-28T10:48:10;100698.72;;;4.79;100.00
38939;BME280;24211;49.980;19.776;2023-02-28T10:50:53;100690.94;;;4.42;100.00
38939;BME280;24211;49.980;19.776;2023-02-28T11:01:40;100682.81;;;4.79;100.00
38939;BME280;24211;49.980;19.776;2023-02-28T11:06:46;100673.09;;;4.62;100.00
38939;BME280;24211;49.980;19.776;2023-02-28T11:09:28;100675.53;;;4.20;100.00
38939;BME280;24211;49.980;19.776;2023-02-28T11:11:57;100672.28;;;4.44;100.00
38939;BME280;24211;49.980;19.776;2023-02-28T11:14:31;100660.59;;;4.72;100.00
38939;BME280;24211;49.980;19.776;2023-02-28T11:17:17;100665.19;;;4.88;100.00
38939;BME280;24211;49.980;19.776;2023-02-28T11:19:51;100660.94;;;5.28;100.00
38939;BME280;24211;49.980;19.776;2023-02-28T11:22:24;100662.56;;;5.21;100.00
38939;BME280;24211;49.980;19.776;2023-02-28T11:25:02;100652.91;;;5.12;100.00
38939;BME280;24211;49.980;19.776;2023-02-28T11:27:44;100654.22;;;5.42;100.00
38939;BME280;24211;49.980;19.776;2023-02-28T11:30:37;100646.53;;;5.65;100.00
38939;BME280;24211;49.980;19.776;2023-02-28T11:36:08;100642.91;;;5.74;100.00
38939;BME280;24211;49.980;19.776;2023-02-28T11:38:37;100642.47;;;5.86;100.00
38939;BME280;24211;49.980;19.776;2023-02-28T11:46:50;100628.25;;;6.04;100.00
38939;BME280;24211;49.980;19.776;2023-02-28T11:55:26;100619.16;;;6.46;100.00
38939;BME280;24211;49.980;19.776;2023-02-28T12:04:24;100618.50;;;6.52;100.00
38939;BME280;24211;49.980;19.776;2023-02-28T12:07:09;100621.44;;;6.74;100.00
38939;BME280;24211;49.980;19.776;2023-02-28T12:13:19;100623.44;;;6.72;100.00
38939;BME280;24211;49.980;19.776;2023-02-28T12:19:21;100622.09;;;7.00;100.00
38939;BME280;24211;49.980;19.776;2023-02-28T12:22:12;100624.22;;;7.04;100.00
38939;BME280;24211;49.980;19.776;2023-02-28T12:25:02;100622.16;;;6.35;100.00
38939;BME280;24211;49.980;19.776;2023-02-28T12:27:44;100617.47;;;6.78;100.00
38939;BME280;24211;49.980;19.776;2023-02-28T12:31:10;100627.06;;;6.95;100.00
38939;BME280;24211;49.980;19.776;2023-02-28T12:33:47;100621.72;;;7.03;100.00
38939;BME280;24211;49.980;19.776;2023-02-28T12:36:20;100620.34;;;7.15;100.00
38939;BME280;24211;49.980;19.776;2023-02-28T12:38:56;100623.72;;;7.01;100.00
38939;BME280;24211;49.980;19.776;2023-02-28T12:41:41;100619.06;;;7.03;100.00
38939;BME280;24211;49.980;19.776;2023-02-28T12:44:23;100616.31;;;7.35;100.00
38939;BME280;24211;49.980;19.776;2023-02-28T12:47:00;100628.94;;;7.33;100.00
38939;BME280;24211;49.980;19.776;2023-02-28T12:49:39;100612.63;;;7.44;100.00
38939;BME280;24211;49.980;19.776;2023-02-28T12:52:37;100617.09;;;7.52;100.00
38939;BME280;24211;49.980;19.776;2023-02-28T12:55:27;100623.00;;;7.23;100.00
38939;BME280;24211;49.980;19.776;2023-02-28T13:01:36;100616.72;;;7.08;100.00
38939;BME280;24211;49.980;19.776;2023-02-28T13:10:48;100603.94;;;7.50;100.00
38939;BME280;24211;49.980;19.776;2023-02-28T13:13:25;100603.63;;;7.45;100.00
38939;BME280;24211;49.980;19.776;2023-02-28T13:16:14;100598.00;;;7.40;100.00
38939;BME280;24211;49.980;19.776;2023-02-28T13:18:46;100592.81;;;7.08;100.00
38939;BME280;24211;49.980;19.776;2023-02-28T13:21:29;100593.84;;;6.99;100.00
38939;BME280;24211;49.980;19.776;2023-02-28T13:24:04;100598.25;;;6.43;100.00
38939;BME280;24211;49.980;19.776;2023-02-28T13:29:38;100580.75;;;6.81;100.00
38939;BME280;24211;49.980;19.776;2023-02-28T13:37:44;100580.63;;;7.30;100.00
38939;BME280;24211;49.980;19.776;2023-02-28T13:42:48;100579.81;;;6.42;100.00
38939;BME280;24211;49.980;19.776;2023-02-28T13:45:29;100579.31;;;6.54;100.00
38939;BME280;24211;49.980;19.776;2023-02-28T13:48:15;100578.31;;;6.55;100.00
38939;BME280;24211;49.980;19.776;2023-02-28T13:50:43;100575.09;;;6.84;100.00
38939;BME280;24211;49.980;19.776;2023-02-28T13:53:27;100580.94;;;6.80;100.00
38939;BME280;24211;49.980;19.776;2023-02-28T13:56:25;100566.31;;;6.84;100.00
38939;BME280;24211;49.980;19.776;2023-02-28T13:59:42;100558.25;;;7.08;100.00
38939;BME280;24211;49.980;19.776;2023-02-28T14:05:17;100553.53;;;7.26;100.00
38939;BME280;24211;49.980;19.776;2023-02-28T14:07:49;100550.47;;;6.43;100.00
38939;BME280;24211;49.980;19.776;2023-02-28T14:10:32;100551.06;;;6.62;100.00
38939;BME280;24211;49.980;19.776;2023-02-28T14:16:02;100546.28;;;6.57;100.00
38939;BME280;24211;49.980;19.776;2023-02-28T14:18:34;100550.38;;;6.76;100.00
38939;BME280;24211;49.980;19.776;2023-02-28T14:21:14;100549.03;;;6.88;100.00
38939;BME280;24211;49.980;19.776;2023-02-28T14:24:01;100546.09;;;6.67;100.00
38939;BME280;24211;49.980;19.776;2023-02-28T14:30:07;100543.28;;;6.52;100.00
38939;BME280;24211;49.980;19.776;2023-02-28T14:32:59;100541.50;;;6.28;100.00
38939;BME280;24211;49.980;19.776;2023-02-28T14:38:43;100551.16;;;6.21;100.00
38939;BME280;24211;49.980;19.776;2023-02-28T14:44:23;100550.78;;;6.32;100.00
38939;BME280;24211;49.980;19.776;2023-02-28T14:46:55;100547.78;;;6.51;100.00
38939;BME280;24211;49.980;19.776;2023-02-28T14:49:28;100553.09;;;6.51;100.00
38939;BME280;24211;49.980;19.776;2023-02-28T14:54:40;100540.94;;;5.60;100.00
38939;BME280;24211;49.980;19.776;2023-02-28T14:57:31;100545.59;;;5.66;100.00
38939;BME280;24211;49.980;19.776;2023-02-28T15:00:33;100548.41;;;5.73;100.00
38939;BME280;24211;49.980;19.776;2023-02-28T15:06:06;100553.22;;;5.77;100.00